Allerton, New York
Current Conditions -  °F | °C
As of 4:51 AM on Sunday 25 Jan 2015 (Local Time) from KLGA Reporting Station
Scattered Clouds Scattered Clouds  
Wind Chill: 25°   Ceiling: Unl
Heat Index: 35°   Visibility: 10mi
Dew Point: 25°   Wind: 16mph
Humidity: 67%   Direction: 270°W
Pressure: 29.6"   Gusts: 22mph
Location:  40.8778°N, 73.8721°W
Report Text: KLGA 250951Z 27014G19KT 10SM FEW037 SCT250 02/M04 A2960 RMK AO2 SLP023 T00171039 $
Loading
Personal Weather Stations






























Interactive Weather Map New forecast layout! Learn more

10-Day Weather Forecast

Advertisements
Track Severe Weather on mobile